createdAt,value
2018-01-18T00:01:18.258Z,8.01
2018-01-18T00:03:46.758Z,8.21
2018-01-18T00:06:15.234Z,8.26
2018-01-18T00:08:43.787Z,8.21
2018-01-18T00:11:13.035Z,8.28
2018-01-18T00:13:41.512Z,8.15
2018-01-18T00:16:10.304Z,8.09
2018-01-18T00:18:39.002Z,7.97
2018-01-18T00:21:07.483Z,8.01
2018-01-18T00:23:36.038Z,8.14
2018-01-18T00:26:04.644Z,7.97
2018-01-18T00:28:33.126Z,7.86
2018-01-18T00:31:01.851Z,7.90
2018-01-18T00:33:31.324Z,7.88
2018-01-18T00:35:59.800Z,7.95
2018-01-18T00:38:28.346Z,8.02
2018-01-18T00:40:57.021Z,7.97
2018-01-18T00:43:26.262Z,7.84
2018-01-18T00:45:55.062Z,8.06
2018-01-18T00:48:23.544Z,7.94
2018-01-18T00:50:52.020Z,8.06
2018-01-18T00:53:20.549Z,8.00
2018-01-18T00:55:49.799Z,7.84
2018-01-18T00:58:18.272Z,7.91
2018-01-18T01:00:46.814Z,7.86
2018-01-18T01:03:16.120Z,8.10
2018-01-18T01:05:45.394Z,8.13
2018-01-18T01:08:14.518Z,7.98
2018-01-18T01:10:42.998Z,8.10
2018-01-18T01:13:11.475Z,8.13
2018-01-18T01:15:40.779Z,8.13
2018-01-18T01:18:10.023Z,7.99
2018-01-18T01:20:38.657Z,7.83
2018-01-18T01:23:08.139Z,7.94
2018-01-18T01:25:37.615Z,8.18
2018-01-18T01:28:06.261Z,8.24
2018-01-18T01:30:34.983Z,8.06
2018-01-18T01:33:03.462Z,8.16
2018-01-18T01:35:31.941Z,7.97
2018-01-18T01:38:00.684Z,8.07
2018-01-18T01:40:29.315Z,7.90
2018-01-18T01:42:58.008Z,8.07
2018-01-18T01:45:26.785Z,8.02
2018-01-18T01:47:55.477Z,8.17
2018-01-18T01:50:23.975Z,8.09
2018-01-18T01:52:52.513Z,8.11
2018-01-18T01:55:21.003Z,8.11
2018-01-18T01:57:49.808Z,8.06
2018-01-18T02:00:18.808Z,8.00
2018-01-18T02:02:47.304Z,8.11
2018-01-18T02:05:15.971Z,7.78
2018-01-18T02:07:44.712Z,7.96
2018-01-18T02:10:14.166Z,7.87
2018-01-18T02:12:43.460Z,7.92
2018-01-18T02:15:11.992Z,7.92
2018-01-18T02:17:41.387Z,7.91
2018-01-18T02:20:10.851Z,7.80
2018-01-18T02:22:40.053Z,7.88
2018-01-18T02:25:09.039Z,7.90
2018-01-18T02:27:37.733Z,7.79
2018-01-18T02:30:06.272Z,7.70
2018-01-18T02:32:34.894Z,7.69
2018-01-18T02:35:03.476Z,7.75
2018-01-18T02:37:32.198Z,7.56
2018-01-18T02:40:01.677Z,7.74
2018-01-18T02:42:30.362Z,7.61
2018-01-18T02:44:59.559Z,7.41
2018-01-18T02:47:28.197Z,7.65
2018-01-18T02:49:56.780Z,7.49
2018-01-18T02:52:25.507Z,7.43
2018-01-18T02:54:53.983Z,7.48
2018-01-18T02:57:22.697Z,7.58
2018-01-18T02:59:51.615Z,7.50
2018-01-18T03:02:20.862Z,7.60
2018-01-18T03:04:49.349Z,7.56
2018-01-18T03:07:18.071Z,7.69
2018-01-18T03:09:47.329Z,7.68
2018-01-18T03:12:15.821Z,7.71
2018-01-18T03:14:44.745Z,7.64
2018-01-18T03:17:14.402Z,7.76
2018-01-18T03:19:42.918Z,7.82
2018-01-18T03:22:11.485Z,7.80
2018-01-18T03:24:41.095Z,7.61
2018-01-18T03:27:09.783Z,7.68
2018-01-18T03:29:38.456Z,7.66
2018-01-18T03:32:06.964Z,7.47
2018-01-18T03:34:35.448Z,7.52
2018-01-18T03:37:04.314Z,7.70
2018-01-18T03:39:32.803Z,7.59
2018-01-18T03:42:01.287Z,7.84
2018-01-18T03:44:30.911Z,7.65
2018-01-18T03:46:59.393Z,7.68
2018-01-18T03:49:28.670Z,7.79
2018-01-18T03:51:57.451Z,7.61
2018-01-18T03:54:25.935Z,7.47
2018-01-18T03:56:54.625Z,7.54
2018-01-18T03:59:23.783Z,7.48
2018-01-18T04:01:52.263Z,7.56
2018-01-18T04:04:20.743Z,7.60
2018-01-18T04:06:49.888Z,7.50
2018-01-18T04:09:18.364Z,7.49
2018-01-18T04:11:48.299Z,7.39
2018-01-18T04:14:17.111Z,7.39
2018-01-18T04:16:46.353Z,7.43
2018-01-18T04:19:15.046Z,7.42
2018-01-18T04:21:43.935Z,7.11
2018-01-18T04:24:12.416Z,7.17
2018-01-18T04:26:40.895Z,7.37
2018-01-18T04:29:11.561Z,7.40
2018-01-18T04:31:40.320Z,7.51
2018-01-18T04:34:09.103Z,7.30
2018-01-18T04:36:38.164Z,7.41
2018-01-18T04:39:06.893Z,7.41
2018-01-18T04:41:35.468Z,7.28
2018-01-18T04:44:04.046Z,7.11
2018-01-18T04:46:32.531Z,7.28
2018-01-18T04:49:01.016Z,7.27
2018-01-18T04:51:29.560Z,7.35
2018-01-18T04:53:58.095Z,7.29
2018-01-18T04:56:27.344Z,7.10
2018-01-18T04:58:55.875Z,7.01
2018-01-18T05:01:24.362Z,6.99
2018-01-18T05:03:52.841Z,7.12
2018-01-18T05:06:21.614Z,7.16
2018-01-18T05:08:50.100Z,7.17
2018-01-18T05:11:18.680Z,7.18
2018-01-18T05:13:47.247Z,7.33
2018-01-18T05:16:15.755Z,7.07
2018-01-18T05:18:45.676Z,7.35
2018-01-18T05:21:14.206Z,7.26
2018-01-18T05:23:42.755Z,7.07
2018-01-18T05:26:14.560Z,7.06
2018-01-18T05:28:43.825Z,6.95
2018-01-18T05:31:13.194Z,6.96
2018-01-18T05:33:41.673Z,6.96
2018-01-18T05:36:10.334Z,7.06
2018-01-18T05:38:38.857Z,7.08
2018-01-18T05:41:07.370Z,7.09
2018-01-18T05:43:35.998Z,6.84
2018-01-18T05:46:04.503Z,6.81
2018-01-18T05:48:33.032Z,6.75
2018-01-18T05:51:01.768Z,6.87
2018-01-18T05:53:30.265Z,6.76
2018-01-18T05:55:59.553Z,6.80
2018-01-18T05:58:28.737Z,6.97
2018-01-18T06:00:57.220Z,6.76
2018-01-18T06:03:25.747Z,6.93
2018-01-18T06:05:54.510Z,6.86
2018-01-18T06:08:23.419Z,6.82
2018-01-18T06:10:52.743Z,6.94
2018-01-18T06:13:21.487Z,6.77
2018-01-18T06:15:49.991Z,6.86
2018-01-18T06:18:18.540Z,6.85
2018-01-18T06:20:47.433Z,7.02
2018-01-18T06:23:15.990Z,6.87
2018-01-18T06:25:45.235Z,6.83
2018-01-18T06:28:13.784Z,6.84
2018-01-18T06:30:42.268Z,6.85
2018-01-18T06:33:10.832Z,6.84
2018-01-18T06:35:39.457Z,6.93
2018-01-18T06:38:07.972Z,6.81
2018-01-18T06:40:37.276Z,6.91
2018-01-18T06:43:06.147Z,6.72
2018-01-18T06:45:35.392Z,6.85
2018-01-18T06:48:03.949Z,6.75
2018-01-18T06:50:32.563Z,6.81
2018-01-18T06:53:01.040Z,6.85
2018-01-18T06:55:30.466Z,6.89
2018-01-18T06:57:59.125Z,6.91
2018-01-18T07:00:27.740Z,6.94
2018-01-18T07:02:56.248Z,6.95
2018-01-18T07:05:24.939Z,6.87
2018-01-18T07:07:53.478Z,7.13
2018-01-18T07:10:22.719Z,7.06
2018-01-18T07:12:52.228Z,7.14
2018-01-18T07:15:21.496Z,7.09
2018-01-18T07:17:50.000Z,7.19
2018-01-18T07:20:18.825Z,7.07
2018-01-18T07:22:48.234Z,7.10
2018-01-18T07:25:17.553Z,7.21
2018-01-18T07:27:46.387Z,7.15
2018-01-18T07:30:14.940Z,7.14
2018-01-18T07:32:43.419Z,7.28
2018-01-18T07:35:12.071Z,7.37
2018-01-18T07:37:40.559Z,7.26
2018-01-18T07:40:09.094Z,7.23
2018-01-18T07:42:37.960Z,7.36
2018-01-18T07:45:07.223Z,7.33
2018-01-18T07:47:35.767Z,7.40
2018-01-18T07:50:05.076Z,7.49
2018-01-18T07:52:33.631Z,7.41
2018-01-18T07:55:02.129Z,7.40
2018-01-18T07:57:30.975Z,7.51
2018-01-18T08:00:00.254Z,7.47
2018-01-18T08:02:29.549Z,7.64
2018-01-18T08:04:58.880Z,7.36
2018-01-18T08:07:27.364Z,7.45
2018-01-18T08:09:56.647Z,7.55
2018-01-18T08:12:25.192Z,7.57
2018-01-18T08:14:53.668Z,7.50
2018-01-18T08:17:22.217Z,7.52
2018-01-18T08:19:51.032Z,7.64
2018-01-18T08:22:19.540Z,7.55
2018-01-18T08:24:48.799Z,7.68
2018-01-18T08:27:17.733Z,7.64
2018-01-18T08:29:46.225Z,7.74
2018-01-18T08:32:14.760Z,7.61
2018-01-18T08:34:44.057Z,7.82
2018-01-18T08:37:12.613Z,7.98
2018-01-18T08:39:41.104Z,7.73
2018-01-18T08:42:10.455Z,7.95
2018-01-18T08:44:38.950Z,7.91
2018-01-18T08:47:08.224Z,7.96
2018-01-18T08:49:36.972Z,7.93
2018-01-18T08:52:06.291Z,8.07
2018-01-18T08:54:34.836Z,7.92
2018-01-18T08:57:03.367Z,8.15
2018-01-18T08:59:31.851Z,7.90
2018-01-18T09:02:00.348Z,8.16
2018-01-18T09:04:28.938Z,7.94
2018-01-18T09:06:57.419Z,8.18
2018-01-18T09:09:25.970Z,8.46
2018-01-18T09:11:54.535Z,8.21
2018-01-18T09:14:23.080Z,8.16
2018-01-18T09:16:51.649Z,8.44
2018-01-18T09:19:20.723Z,8.33
2018-01-18T09:21:49.974Z,8.40
2018-01-18T09:24:18.468Z,8.32
2018-01-18T09:26:47.068Z,8.66
2018-01-18T09:29:15.547Z,9.00
2018-01-18T09:31:44.883Z,9.04
2018-01-18T09:34:13.440Z,9.48
2018-01-18T09:36:41.934Z,9.49
2018-01-18T09:39:11.263Z,9.09
2018-01-18T09:41:40.012Z,9.65
2018-01-18T09:44:09.326Z,9.50
2018-01-18T09:46:38.580Z,9.79
2018-01-18T09:49:07.170Z,9.67
2018-01-18T09:51:36.535Z,9.68
2018-01-18T09:54:05.033Z,10.09
2018-01-18T09:56:34.192Z,10.05
2018-01-18T09:59:02.752Z,10.15
2018-01-18T10:01:31.321Z,10.06
2018-01-18T10:04:00.050Z,10.27
2018-01-18T10:06:29.446Z,10.52
2018-01-18T10:08:58.715Z,10.96
2018-01-18T10:11:27.420Z,11.13
2018-01-18T10:13:56.831Z,11.08
2018-01-18T10:16:26.148Z,11.08
2018-01-18T10:18:54.854Z,10.91
2018-01-18T10:21:23.349Z,11.38
2018-01-18T10:23:51.844Z,10.78
2018-01-18T10:26:20.748Z,10.90
2018-01-18T10:28:49.238Z,10.51
2018-01-18T10:31:18.565Z,10.45
2018-01-18T10:33:47.195Z,10.48
2018-01-18T10:36:16.511Z,10.88
2018-01-18T10:38:45.083Z,11.05
2018-01-18T10:41:13.724Z,10.80
2018-01-18T10:43:42.238Z,11.10
2018-01-18T10:46:10.714Z,11.31
2018-01-18T10:48:39.299Z,11.51
2018-01-18T10:51:07.851Z,11.44
2018-01-18T10:53:36.404Z,11.59
2018-01-18T10:56:05.728Z,11.89
2018-01-18T10:58:34.231Z,11.69
2018-01-18T11:01:03.626Z,11.42
2018-01-18T11:03:32.200Z,11.66
2018-01-18T11:06:00.720Z,11.90
2018-01-18T11:08:29.206Z,12.15
2018-01-18T11:10:57.821Z,12.47
2018-01-18T11:13:27.078Z,12.74
2018-01-18T11:15:55.664Z,12.50
2018-01-18T11:18:24.265Z,12.34
2018-01-18T11:20:52.755Z,12.11
2018-01-18T11:23:21.235Z,12.35
2018-01-18T11:25:49.871Z,12.91
2018-01-18T11:28:18.364Z,12.37
2018-01-18T11:30:46.920Z,11.93
2018-01-18T11:33:15.467Z,11.81
2018-01-18T11:35:43.955Z,12.18
2018-01-18T11:38:12.529Z,12.44
2018-01-18T11:40:41.230Z,11.95
2018-01-18T11:43:09.751Z,12.20
2018-01-18T11:45:38.252Z,12.08
2018-01-18T11:48:06.869Z,12.11
2018-01-18T11:50:35.436Z,12.54
2018-01-18T11:53:03.920Z,12.15
2018-01-18T11:55:32.472Z,12.27
2018-01-18T11:58:01.016Z,12.24
2018-01-18T12:00:29.503Z,11.65
2018-01-18T12:02:58.108Z,11.88
2018-01-18T12:05:26.598Z,11.93
2018-01-18T12:07:55.082Z,12.06
2018-01-18T12:10:24.775Z,12.49
2018-01-18T12:12:54.286Z,12.41
2018-01-18T12:15:22.796Z,11.96
2018-01-18T12:17:51.669Z,11.81
2018-01-18T12:20:20.979Z,11.72
2018-01-18T12:22:50.229Z,11.61
2018-01-18T12:25:18.771Z,11.19
2018-01-18T12:27:47.275Z,11.55
2018-01-18T12:30:15.790Z,11.75
2018-01-18T12:32:44.495Z,11.52
2018-01-18T12:35:13.817Z,11.62
2018-01-18T12:37:42.354Z,11.75
2018-01-18T12:40:11.171Z,11.66
2018-01-18T12:42:40.583Z,11.71
2018-01-18T12:45:09.087Z,11.51
2018-01-18T12:47:37.716Z,11.69
2018-01-18T12:50:06.215Z,11.72
2018-01-18T12:52:35.477Z,12.04
2018-01-18T12:55:04.091Z,11.78
2018-01-18T12:57:32.592Z,12.03
2018-01-18T13:00:01.104Z,11.88
2018-01-18T13:02:29.686Z,11.95
2018-01-18T13:04:58.971Z,11.85
2018-01-18T13:07:27.463Z,11.52
2018-01-18T13:09:56.087Z,11.86
2018-01-18T13:12:24.583Z,11.68
2018-01-18T13:14:53.181Z,11.67
2018-01-18T13:17:22.697Z,11.63
2018-01-18T13:19:51.981Z,11.63
2018-01-18T13:22:20.528Z,11.02
2018-01-18T13:24:49.437Z,10.81
2018-01-18T13:27:18.693Z,10.81
2018-01-18T13:29:48.391Z,10.72
2018-01-18T13:32:17.313Z,10.72
2018-01-18T13:34:46.974Z,10.42
2018-01-18T13:37:15.473Z,10.59
2018-01-18T13:39:44.771Z,10.84
2018-01-18T13:42:14.122Z,10.63
2018-01-18T13:44:43.504Z,10.48
2018-01-18T13:47:12.124Z,10.69
2018-01-18T13:49:40.669Z,10.68
2018-01-18T13:52:09.156Z,10.76
2018-01-18T13:54:37.854Z,10.90
2018-01-18T13:57:06.771Z,10.58
2018-01-18T13:59:36.413Z,10.71
2018-01-18T14:02:05.087Z,10.91
2018-01-18T14:04:34.393Z,10.70
2018-01-18T14:07:02.937Z,10.99
2018-01-18T14:09:31.631Z,10.65
2018-01-18T14:12:00.788Z,10.73
2018-01-18T14:14:29.269Z,10.96
2018-01-18T14:16:57.935Z,11.01
2018-01-18T14:19:27.191Z,10.88
2018-01-18T14:21:57.130Z,11.03
2018-01-18T14:24:25.701Z,10.94
2018-01-18T14:26:54.206Z,10.96
2018-01-18T14:29:22.698Z,10.65
2018-01-18T14:31:52.468Z,10.51
2018-01-18T14:34:21.019Z,10.48
2018-01-18T14:36:49.780Z,10.24
2018-01-18T14:39:18.639Z,9.82
2018-01-18T14:41:47.128Z,9.75
2018-01-18T14:44:17.151Z,9.59
2018-01-18T14:46:46.153Z,9.47
2018-01-18T14:49:15.434Z,9.53
2018-01-18T14:51:43.934Z,9.36
2018-01-18T14:54:12.494Z,9.12
2018-01-18T14:56:41.808Z,8.86
2018-01-18T14:59:10.312Z,8.81
2018-01-18T15:01:39.645Z,8.87
2018-01-18T15:04:08.962Z,8.94
2018-01-18T15:06:37.479Z,8.83
2018-01-18T15:09:07.557Z,8.86
2018-01-18T15:11:36.939Z,8.88
2018-01-18T15:14:05.425Z,8.73
2018-01-18T15:16:34.048Z,8.71
2018-01-18T15:19:03.383Z,8.83
2018-01-18T15:21:31.896Z,8.83
2018-01-18T15:24:00.531Z,8.75
2018-01-18T15:26:29.080Z,8.65
2018-01-18T15:28:58.329Z,8.56
2018-01-18T15:31:27.699Z,8.47
2018-01-18T15:33:56.198Z,8.36
2018-01-18T15:36:25.460Z,8.30
2018-01-18T15:38:54.011Z,8.36
2018-01-18T15:41:23.283Z,8.36
2018-01-18T15:43:52.540Z,8.01
2018-01-18T15:46:21.532Z,8.00
2018-01-18T15:48:50.016Z,7.94
2018-01-18T15:51:18.513Z,7.86
2018-01-18T15:53:47.968Z,7.61
2018-01-18T15:56:16.456Z,7.48
2018-01-18T15:58:45.056Z,7.80
2018-01-18T16:01:14.549Z,7.84
2018-01-18T16:03:44.138Z,7.81
2018-01-18T16:06:12.635Z,7.78
2018-01-18T16:08:42.175Z,7.76
2018-01-18T16:11:11.424Z,7.78
2018-01-18T16:13:39.971Z,7.68
2018-01-18T16:16:08.503Z,7.48
2018-01-18T16:18:37.004Z,7.16
2018-01-18T16:21:06.259Z,7.19
2018-01-18T16:23:34.863Z,7.28
2018-01-18T16:26:03.374Z,7.22
2018-01-18T16:28:32.761Z,7.22
2018-01-18T16:31:01.304Z,7.34
2018-01-18T16:33:29.902Z,7.09
2018-01-18T16:35:58.422Z,7.20
2018-01-18T16:38:28.051Z,7.20
2018-01-18T16:40:56.638Z,7.04
2018-01-18T16:43:25.136Z,6.81
2018-01-18T16:45:53.698Z,6.73
2018-01-18T16:48:22.305Z,6.76
2018-01-18T16:50:50.860Z,6.64
2018-01-18T16:53:20.484Z,6.58
2018-01-18T16:55:49.075Z,6.42
2018-01-18T16:58:17.645Z,6.50
2018-01-18T17:00:46.388Z,6.57
2018-01-18T17:03:14.902Z,6.68
2018-01-18T17:05:44.250Z,6.86
2018-01-18T17:08:12.994Z,6.86
2018-01-18T17:10:42.247Z,6.98
2018-01-18T17:13:10.803Z,6.98
2018-01-18T17:15:39.461Z,7.06
2018-01-18T17:18:08.715Z,7.17
2018-01-18T17:20:37.204Z,7.24
2018-01-18T17:23:05.735Z,7.27
2018-01-18T17:25:34.269Z,7.35
2018-01-18T17:28:02.777Z,7.33
2018-01-18T17:30:32.127Z,7.31
2018-01-18T17:33:00.615Z,7.40
2018-01-18T17:35:29.115Z,7.41
2018-01-18T17:37:57.818Z,7.39
2018-01-18T17:40:26.406Z,7.23
2018-01-18T17:42:55.740Z,7.18
2018-01-18T17:45:24.307Z,7.31
2018-01-18T17:47:53.563Z,7.28
2018-01-18T17:50:22.133Z,7.32
2018-01-18T17:52:50.862Z,7.33
2018-01-18T17:55:20.213Z,7.26
2018-01-18T17:57:48.739Z,7.32
2018-01-18T18:00:18.090Z,7.23
2018-01-18T18:02:46.598Z,7.31
2018-01-18T18:05:15.171Z,7.17
2018-01-18T18:07:44.471Z,7.30
2018-01-18T18:10:13.024Z,7.32
2018-01-18T18:12:41.508Z,7.31
2018-01-18T18:15:10.047Z,7.37
2018-01-18T18:17:38.540Z,7.38
2018-01-18T18:20:07.790Z,7.42
2018-01-18T18:22:36.416Z,7.29
2018-01-18T18:25:05.811Z,7.09
2018-01-18T18:27:34.380Z,7.08
2018-01-18T18:30:02.928Z,6.62
2018-01-18T18:32:31.427Z,5.96
2018-01-18T18:34:59.988Z,5.98
2018-01-18T18:37:28.810Z,5.97
2018-01-18T18:39:57.301Z,6.23
2018-01-18T18:42:25.872Z,6.19
2018-01-18T18:44:54.513Z,6.19
2018-01-18T18:47:23.068Z,6.14
2018-01-18T18:49:52.372Z,6.11
2018-01-18T18:52:22.154Z,6.36
2018-01-18T18:54:51.861Z,6.51
2018-01-18T18:57:20.348Z,6.65
2018-01-18T18:59:49.538Z,6.56
2018-01-18T19:02:18.943Z,6.65
2018-01-18T19:04:47.492Z,6.82
2018-01-18T19:07:16.109Z,6.75
2018-01-18T19:09:44.624Z,6.78
2018-01-18T19:12:13.961Z,6.98
2018-01-18T19:14:42.944Z,7.14
2018-01-18T19:17:11.439Z,7.05
2018-01-18T19:19:39.995Z,7.04
2018-01-18T19:22:08.579Z,7.08
2018-01-18T19:24:37.835Z,6.99
2018-01-18T19:27:06.331Z,7.01
2018-01-18T19:29:35.156Z,6.94
2018-01-18T19:32:05.310Z,6.98
2018-01-18T19:34:33.890Z,7.11
2018-01-18T19:37:03.200Z,7.01
2018-01-18T19:39:32.717Z,6.82
2018-01-18T19:42:01.277Z,6.96
2018-01-18T19:44:29.988Z,6.99
2018-01-18T19:46:58.510Z,6.76
2018-01-18T19:49:27.087Z,6.70
2018-01-18T19:51:55.961Z,6.70
2018-01-18T19:54:24.508Z,6.73
2018-01-18T19:56:52.993Z,6.58
2018-01-18T19:59:21.648Z,6.55
2018-01-18T20:01:50.145Z,6.44
2018-01-18T20:04:20.308Z,6.43
2018-01-18T20:06:49.652Z,6.39
2018-01-18T20:09:18.151Z,6.35
2018-01-18T20:11:47.421Z,6.45
2018-01-18T20:14:16.955Z,6.41
2018-01-18T20:16:46.208Z,6.39
2018-01-18T20:19:14.745Z,6.32
2018-01-18T20:21:43.517Z,6.41
2018-01-18T20:24:12.779Z,6.30
2018-01-18T20:26:41.279Z,6.41
2018-01-18T20:29:10.196Z,6.47
2018-01-18T20:31:39.609Z,6.60
2018-01-18T20:34:08.172Z,6.56
2018-01-18T20:36:37.894Z,6.68
2018-01-18T20:39:07.156Z,6.44
2018-01-18T20:41:35.654Z,6.58
2018-01-18T20:44:04.189Z,6.41
2018-01-18T20:46:32.889Z,6.52
2018-01-18T20:49:01.535Z,6.65
2018-01-18T20:51:30.075Z,6.66
2018-01-18T20:54:01.071Z,6.56
2018-01-18T20:56:29.786Z,6.58
2018-01-18T20:58:58.677Z,6.70
2018-01-18T21:01:27.167Z,6.90
2018-01-18T21:03:55.647Z,6.95
2018-01-18T21:06:24.352Z,6.75
2018-01-18T21:08:52.868Z,6.97
2018-01-18T21:11:21.590Z,6.96
2018-01-18T21:13:50.228Z,6.96
2018-01-18T21:16:19.541Z,7.02
2018-01-18T21:18:48.036Z,7.10
2018-01-18T21:21:16.896Z,7.14
2018-01-18T21:23:46.208Z,7.13
2018-01-18T21:26:14.899Z,7.06
2018-01-18T21:28:44.061Z,7.14
2018-01-18T21:31:13.535Z,7.03
2018-01-18T21:33:42.109Z,6.99
2018-01-18T21:36:10.652Z,6.92
2018-01-18T21:38:40.062Z,7.09
2018-01-18T21:41:08.796Z,7.16
2018-01-18T21:43:37.529Z,7.02
2018-01-18T21:46:06.056Z,7.08
2018-01-18T21:48:34.577Z,7.05
2018-01-18T21:51:04.083Z,6.98
2018-01-18T21:53:33.551Z,7.03
2018-01-18T21:56:02.111Z,6.95
2018-01-18T21:58:30.801Z,7.06
2018-01-18T22:00:59.470Z,7.08
2018-01-18T22:03:27.901Z,7.04
2018-01-18T22:05:56.440Z,6.85
2018-01-18T22:08:24.866Z,6.73
2018-01-18T22:10:53.284Z,6.49
2018-01-18T22:13:22.714Z,6.46
2018-01-18T22:15:51.139Z,6.37
2018-01-18T22:18:21.066Z,6.25
2018-01-18T22:20:49.687Z,6.17
2018-01-18T22:23:18.114Z,6.09
2018-01-18T22:25:46.551Z,6.39
2018-01-18T22:28:15.166Z,6.57
2018-01-18T22:30:43.609Z,6.54
2018-01-18T22:33:12.043Z,6.50
2018-01-18T22:35:40.534Z,6.17
2018-01-18T22:38:09.743Z,6.16
2018-01-18T22:40:38.937Z,6.12
2018-01-18T22:43:08.392Z,6.06
2018-01-18T22:45:36.834Z,6.16
2018-01-18T22:48:05.275Z,6.19
2018-01-18T22:50:33.906Z,6.09
2018-01-18T22:53:02.348Z,6.08
2018-01-18T22:55:30.788Z,6.22
2018-01-18T22:58:00.104Z,6.34
2018-01-18T23:00:29.338Z,6.44
2018-01-18T23:02:57.775Z,6.35
2018-01-18T23:05:27.161Z,6.43
2018-01-18T23:07:55.589Z,6.30
2018-01-18T23:10:24.022Z,6.38
2018-01-18T23:12:52.654Z,6.23
2018-01-18T23:15:21.145Z,6.13
2018-01-18T23:17:49.638Z,6.14
2018-01-18T23:20:18.190Z,6.18
2018-01-18T23:22:46.683Z,6.20
2018-01-18T23:25:15.174Z,6.07
2018-01-18T23:27:43.984Z,6.09
2018-01-18T23:30:12.514Z,6.14
2018-01-18T23:32:41.922Z,6.20
2018-01-18T23:35:12.104Z,6.31
2018-01-18T23:37:41.415Z,6.34
2018-01-18T23:40:10.179Z,6.27
2018-01-18T23:42:38.734Z,6.35
2018-01-18T23:45:07.291Z,6.40
2018-01-18T23:47:36.548Z,6.29
2018-01-18T23:50:05.805Z,6.26
2018-01-18T23:52:34.487Z,5.97
2018-01-18T23:55:02.969Z,5.92
2018-01-18T23:57:31.942Z,5.81
